Time;durP1;ratioP1;P1;durP2;ratioP2;P2;SDS_P1;SDS_P2;PMS_P1;PMS_P2;Temp;Humidity;BMP_temperature;BMP_pressure;BME280_temperature;BME280_humidity;BME280_pressure;Samples;Min_cycle;Max_cycle;Signal;HPM_P1;HPM_P2
2022/01/28 00:00:19;;;;;;;23.73;6.20;;;;;;;;;;4996584;28;20490;-79
2022/01/28 00:02:58;;;;;;;22.60;4.80;;;;;;;;;;4994035;28;20463;-78
2022/01/28 00:05:26;;;;;;;32.37;6.67;;;;;;;;;;5001515;28;20470;-79
2022/01/28 00:07:53;;;;;;;14.13;5.30;;;;;;;;;;4994862;28;21040;-80
2022/01/28 00:10:21;;;;;;;23.57;6.40;;;;;;;;;;4994742;28;20478;-79
2022/01/28 00:13:12;;;;;;;49.40;8.27;;;;;;;;;;4991862;28;20458;-79
2022/01/28 00:15:45;;;;;;;37.50;5.73;;;;;;;;;;4989723;28;20479;-77
2022/01/28 00:40:10;;;;;;;22.43;5.70;;;;;;;;;;4990327;28;20529;-79
2022/01/28 00:42:36;;;;;;;22.10;5.57;;;;;;;;;;4999217;28;20447;-80
2022/01/28 00:45:02;;;;;;;22.27;7.93;;;;;;;;;;4994792;28;20537;-80
2022/01/28 00:47:28;;;;;;;19.13;5.10;;;;;;;;;;4999050;28;20509;-79
2022/01/28 00:49:55;;;;;;;20.30;5.73;;;;;;;;;;4991969;28;20474;-79
2022/01/28 00:52:21;;;;;;;30.50;4.87;;;;;;;;;;4993896;28;20477;-79
2022/01/28 00:54:49;;;;;;;37.03;6.80;;;;;;;;;;4985684;28;20467;-80
2022/01/28 00:57:15;;;;;;;30.77;6.67;;;;;;;;;;4994095;28;20990;-79
2022/01/28 00:59:41;;;;;;;27.23;5.27;;;;;;;;;;4986448;28;20497;-79
2022/01/28 01:02:07;;;;;;;23.07;5.10;;;;;;;;;;4986645;28;20450;-80
2022/01/28 01:04:34;;;;;;;28.70;5.17;;;;;;;;;;4988345;28;20487;-79
2022/01/28 01:07:01;;;;;;;31.00;5.43;;;;;;;;;;4992923;28;20473;-80
2022/01/28 01:09:27;;;;;;;24.90;6.20;;;;;;;;;;4992400;28;20462;-79
2022/01/28 01:11:55;;;;;;;23.10;5.77;;;;;;;;;;4990903;28;20501;-79
2022/01/28 01:14:21;;;;;;;22.23;5.90;;;;;;;;;;4984508;28;20479;-77
2022/01/28 01:17:02;;;;;;;27.30;5.37;;;;;;;;;;4992193;28;20452;-79
2022/01/28 01:19:33;;;;;;;18.90;4.67;;;;;;;;;;4990278;28;20451;-80
2022/01/28 01:22:00;;;;;;;21.57;4.57;;;;;;;;;;4989281;28;20471;-79
2022/01/28 01:24:29;;;;;;;27.33;5.10;;;;;;;;;;4982070;28;20478;-79
2022/01/28 01:26:59;;;;;;;31.57;5.50;;;;;;;;;;4991170;28;20475;-79
2022/01/28 01:29:26;;;;;;;18.43;4.93;;;;;;;;;;4991731;28;20478;-80
2022/01/28 01:32:00;;;;;;;30.60;6.07;;;;;;;;;;4993362;28;20450;-80
2022/01/28 01:34:27;;;;;;;17.23;5.30;;;;;;;;;;4989638;28;20994;-79
2022/01/28 01:36:53;;;;;;;27.93;5.30;;;;;;;;;;4989512;28;20718;-79
2022/01/28 01:39:23;;;;;;;23.30;5.17;;;;;;;;;;4989208;28;20872;-80
2022/01/28 01:41:55;;;;;;;17.47;4.63;;;;;;;;;;4986404;28;20956;-79
2022/01/28 01:44:31;;;;;;;17.70;5.57;;;;;;;;;;4989990;28;20478;-78
2022/01/28 01:52:00;;;;;;;18.70;4.70;;;;;;;;;;4985633;28;20509;-80
2022/01/28 01:52:55;;;;;;;12.23;4.10;;;;;;;;;;4909834;29;21109;-78
2022/01/28 01:55:21;;;;;;;20.53;5.03;;;;;;;;;;4908777;29;20510;-79
2022/01/28 01:57:48;;;;;;;22.67;4.73;;;;;;;;;;4939251;28;20452;-80
2022/01/28 02:00:16;;;;;;;21.67;5.50;;;;;;;;;;4987561;28;20482;-78
2022/01/28 02:02:43;;;;;;;21.27;5.17;;;;;;;;;;4999293;28;20449;-76
2022/01/28 02:05:09;;;;;;;19.33;4.67;;;;;;;;;;5017906;23;20514;-85
2022/01/28 02:07:35;;;;;;;27.83;4.43;;;;;;;;;;4998746;28;20467;-85
2022/01/28 02:10:02;;;;;;;17.23;4.67;;;;;;;;;;4997854;28;20473;-85
2022/01/28 02:12:28;;;;;;;23.17;5.00;;;;;;;;;;5006417;28;20442;-85
2022/01/28 02:14:54;;;;;;;28.67;6.17;;;;;;;;;;4998951;28;20478;-85
2022/01/28 02:17:22;;;;;;;22.60;5.33;;;;;;;;;;4990728;28;20442;-84
2022/01/28 02:19:48;;;;;;;21.73;5.23;;;;;;;;;;4992752;28;20533;-85
2022/01/28 02:22:18;;;;;;;18.37;5.33;;;;;;;;;;4997847;28;20451;-85
2022/01/28 02:24:45;;;;;;;15.47;3.67;;;;;;;;;;4988960;28;20893;-84
2022/01/28 02:27:15;;;;;;;29.07;5.30;;;;;;;;;;4990245;28;20470;-85
2022/01/28 02:29:43;;;;;;;17.87;5.90;;;;;;;;;;4993765;28;20557;-85
2022/01/28 02:32:09;;;;;;;25.57;6.13;;;;;;;;;;4990619;28;20473;-85
2022/01/28 02:34:38;;;;;;;21.50;4.80;;;;;;;;;;4988493;28;21007;-85
2022/01/28 02:37:05;;;;;;;24.60;5.00;;;;;;;;;;4994179;28;20479;-84
2022/01/28 02:39:32;;;;;;;22.63;5.20;;;;;;;;;;4986907;28;20992;-85
2022/01/28 02:42:05;;;;;;;29.63;5.10;;;;;;;;;;4988290;28;20454;-86
2022/01/28 02:44:46;;;;;;;18.90;4.07;;;;;;;;;;4994274;28;21049;-85
2022/01/28 02:47:15;;;;;;;16.63;5.10;;;;;;;;;;4999403;28;20546;-85
2022/01/28 02:49:43;;;;;;;12.27;4.17;;;;;;;;;;4992421;28;20497;-86
2022/01/28 02:52:17;;;;;;;26.00;6.53;;;;;;;;;;4995402;28;20477;-83
2022/01/28 02:54:47;;;;;;;22.73;5.00;;;;;;;;;;4992805;28;20490;-84
2022/01/28 02:57:18;;;;;;;21.43;6.13;;;;;;;;;;4996672;28;20872;-83
2022/01/28 02:59:44;;;;;;;30.37;4.83;;;;;;;;;;4996005;28;20503;-83
2022/01/28 03:02:10;;;;;;;22.50;5.33;;;;;;;;;;4994777;28;20455;-84
2022/01/28 03:05:02;;;;;;;18.93;4.30;;;;;;;;;;4994543;28;21249;-84
2022/01/28 03:07:28;;;;;;;24.00;5.20;;;;;;;;;;4988107;28;20459;-85
2022/01/28 03:10:25;;;;;;;22.10;4.13;;;;;;;;;;4991680;28;20482;-84
2022/01/28 03:13:03;;;;;;;21.63;4.67;;;;;;;;;;4995688;28;20796;-84
2022/01/28 03:15:30;;;;;;;19.40;4.97;;;;;;;;;;4993397;28;20505;-85
2022/01/28 03:18:08;;;;;;;13.47;4.20;;;;;;;;;;4992659;28;20454;-84
2022/01/28 03:20:40;;;;;;;15.40;4.63;;;;;;;;;;4998284;28;20489;-84
2022/01/28 03:23:06;;;;;;;19.87;5.30;;;;;;;;;;4992794;28;20465;-84
2022/01/28 03:25:36;;;;;;;24.43;5.10;;;;;;;;;;4992067;28;20486;-82
2022/01/28 03:28:02;;;;;;;40.60;5.70;;;;;;;;;;4992409;28;20952;-84
2022/01/28 03:30:28;;;;;;;19.63;5.77;;;;;;;;;;4993090;28;20506;-83
2022/01/28 03:32:55;;;;;;;14.90;4.30;;;;;;;;;;4996197;28;20446;-83
2022/01/28 03:35:21;;;;;;;18.83;4.80;;;;;;;;;;4992321;28;20511;-84
2022/01/28 03:37:47;;;;;;;20.00;4.57;;;;;;;;;;4994092;28;20948;-83
2022/01/28 03:40:18;;;;;;;21.53;4.80;;;;;;;;;;4997030;28;20478;-82
2022/01/28 03:42:45;;;;;;;20.27;5.43;;;;;;;;;;4997976;28;20582;-83
2022/01/28 03:45:12;;;;;;;23.60;5.17;;;;;;;;;;5001042;28;21030;-84
2022/01/28 03:47:38;;;;;;;18.40;4.40;;;;;;;;;;4993687;28;20450;-84
2022/01/28 03:50:04;;;;;;;23.13;4.50;;;;;;;;;;4996221;28;20479;-84
2022/01/28 03:52:31;;;;;;;26.80;6.20;;;;;;;;;;4993455;28;20474;-84
2022/01/28 03:54:57;;;;;;;19.97;3.40;;;;;;;;;;4992545;28;20538;-83
2022/01/28 03:57:23;;;;;;;19.50;4.93;;;;;;;;;;4997906;28;20434;-85
2022/01/28 03:59:51;;;;;;;13.67;4.87;;;;;;;;;;4994351;28;20483;-85
2022/01/28 04:02:20;;;;;;;21.07;5.80;;;;;;;;;;4989836;28;20454;-86
2022/01/28 04:13:03;;;;;;;15.20;3.30;;;;;;;;;;4992728;28;20877;-85
2022/01/28 04:15:50;;;;;;;17.87;4.40;;;;;;;;;;4997229;28;20486;-85
2022/01/28 04:18:17;;;;;;;12.80;3.53;;;;;;;;;;4994695;28;20494;-85
2022/01/28 04:20:43;;;;;;;14.33;3.10;;;;;;;;;;4991875;28;20470;-86
2022/01/28 04:23:09;;;;;;;13.13;3.07;;;;;;;;;;4991641;28;20481;-83
2022/01/28 04:25:35;;;;;;;14.77;3.23;;;;;;;;;;4992148;28;20498;-85
2022/01/28 04:28:02;;;;;;;12.87;4.30;;;;;;;;;;4992044;28;20588;-85
2022/01/28 04:30:28;;;;;;;12.27;3.90;;;;;;;;;;4992381;28;20483;-83
2022/01/28 04:32:55;;;;;;;10.27;2.63;;;;;;;;;;4990112;28;20454;-84
2022/01/28 04:35:22;;;;;;;15.20;3.10;;;;;;;;;;4991489;28;20842;-86
2022/01/28 04:37:58;;;;;;;11.93;2.40;;;;;;;;;;4994653;28;20454;-85
2022/01/28 04:40:31;;;;;;;9.73;2.80;;;;;;;;;;4991387;28;20469;-84
2022/01/28 04:43:07;;;;;;;16.57;3.93;;;;;;;;;;4995236;28;20462;-85
2022/01/28 04:45:41;;;;;;;10.73;3.10;;;;;;;;;;4994774;28;20470;-86
2022/01/28 04:48:17;;;;;;;17.17;4.17;;;;;;;;;;4991463;28;20450;-85
2022/01/28 04:50:48;;;;;;;19.10;3.97;;;;;;;;;;4985805;28;20992;-85
2022/01/28 04:53:38;;;;;;;16.83;4.00;;;;;;;;;;4992839;28;20471;-85
2022/01/28 04:56:28;;;;;;;19.73;4.30;;;;;;;;;;4990793;28;20479;-85
2022/01/28 04:59:19;;;;;;;11.40;4.00;;;;;;;;;;4990407;28;20454;-86
2022/01/28 05:02:09;;;;;;;13.30;3.77;;;;;;;;;;4991979;28;20629;-83
2022/01/28 05:04:51;;;;;;;16.07;3.90;;;;;;;;;;4985913;28;20502;-86
2022/01/28 05:07:32;;;;;;;14.90;3.37;;;;;;;;;;4998110;28;20545;-86
2022/01/28 05:15:57;;;;;;;17.23;4.53;;;;;;;;;;4991892;28;20469;-86
2022/01/28 05:26:39;;;;;;;14.70;5.47;;;;;;;;;;4993171;28;20476;-86
2022/01/28 05:29:05;;;;;;;21.27;4.50;;;;;;;;;;4990205;28;20451;-86
2022/01/28 05:31:31;;;;;;;18.93;5.20;;;;;;;;;;4986141;28;20486;-85
2022/01/28 05:33:58;;;;;;;20.50;5.30;;;;;;;;;;4989049;28;20470;-85
2022/01/28 05:36:26;;;;;;;15.50;4.83;;;;;;;;;;4987739;28;20486;-85
2022/01/28 05:38:52;;;;;;;17.97;6.40;;;;;;;;;;4983927;28;20830;-85
2022/01/28 05:41:19;;;;;;;26.00;4.83;;;;;;;;;;4990332;28;20529;-85
2022/01/28 05:43:45;;;;;;;21.27;4.87;;;;;;;;;;4989838;28;20581;-83
2022/01/28 05:46:12;;;;;;;39.63;6.47;;;;;;;;;;4988983;28;20490;-86
2022/01/28 05:48:38;;;;;;;21.10;5.90;;;;;;;;;;4990215;28;20517;-84
2022/01/28 05:51:04;;;;;;;19.70;5.97;;;;;;;;;;4987799;28;20480;-85
2022/01/28 05:53:32;;;;;;;16.53;4.80;;;;;;;;;;4988940;28;20462;-85
2022/01/28 05:55:58;;;;;;;26.47;6.50;;;;;;;;;;4988767;28;20557;-85
2022/01/28 05:58:24;;;;;;;20.60;5.50;;;;;;;;;;4990302;28;21021;-85
2022/01/28 06:00:50;;;;;;;32.13;5.47;;;;;;;;;;4989323;28;20489;-85
2022/01/28 06:03:17;;;;;;;20.90;5.23;;;;;;;;;;4991975;28;20500;-85
2022/01/28 06:05:45;;;;;;;41.13;8.00;;;;;;;;;;4990058;28;20521;-85
2022/01/28 06:08:11;;;;;;;22.00;5.93;;;;;;;;;;4990758;28;20513;-84
2022/01/28 06:10:38;;;;;;;33.47;6.20;;;;;;;;;;4991138;28;20502;-85
2022/01/28 06:13:05;;;;;;;29.60;5.73;;;;;;;;;;4991585;28;20821;-85
2022/01/28 06:15:32;;;;;;;22.80;6.40;;;;;;;;;;4990775;28;21538;-85
2022/01/28 06:17:58;;;;;;;29.33;6.00;;;;;;;;;;4988935;28;20512;-82
2022/01/28 06:20:24;;;;;;;24.53;5.70;;;;;;;;;;4996477;28;20470;-85
2022/01/28 06:22:50;;;;;;;21.20;5.40;;;;;;;;;;4994668;28;20446;-83
2022/01/28 06:25:17;;;;;;;18.23;4.27;;;;;;;;;;4992303;28;20486;-85
2022/01/28 06:27:45;;;;;;;21.13;5.47;;;;;;;;;;4994533;28;20529;-84
2022/01/28 06:30:12;;;;;;;20.10;6.20;;;;;;;;;;4994852;28;20474;-85
2022/01/28 06:32:38;;;;;;;23.70;5.33;;;;;;;;;;4992197;28;20473;-85
2022/01/28 06:35:08;;;;;;;31.97;7.43;;;;;;;;;;4994821;28;20494;-85
2022/01/28 06:37:34;;;;;;;22.60;5.50;;;;;;;;;;4991968;28;20470;-84
2022/01/28 06:40:00;;;;;;;33.03;6.17;;;;;;;;;;4995374;28;20474;-84
2022/01/28 06:42:26;;;;;;;29.10;5.83;;;;;;;;;;4992905;28;20466;-85
2022/01/28 06:44:54;;;;;;;26.73;6.20;;;;;;;;;;4986836;28;20521;-85
2022/01/28 06:47:20;;;;;;;30.63;5.87;;;;;;;;;;4990573;28;20517;-85
2022/01/28 06:49:46;;;;;;;24.63;5.17;;;;;;;;;;4991891;28;20470;-84
2022/01/28 06:52:13;;;;;;;35.53;6.30;;;;;;;;;;4995204;28;20455;-85
2022/01/28 06:54:39;;;;;;;24.23;5.13;;;;;;;;;;4992387;28;20486;-85
2022/01/28 06:57:05;;;;;;;29.90;5.50;;;;;;;;;;4998654;28;20827;-85
2022/01/28 06:59:32;;;;;;;24.40;6.30;;;;;;;;;;4992574;28;20474;-85
2022/01/28 07:01:59;;;;;;;14.70;6.17;;;;;;;;;;4990987;28;20443;-85
2022/01/28 07:04:25;;;;;;;26.40;5.67;;;;;;;;;;4991300;28;20898;-84
2022/01/28 07:06:52;;;;;;;31.07;6.73;;;;;;;;;;4994461;28;20881;-85
2022/01/28 07:09:18;;;;;;;23.53;6.63;;;;;;;;;;4997550;28;20481;-86
2022/01/28 07:11:44;;;;;;;19.33;5.23;;;;;;;;;;4999547;28;21011;-85
2022/01/28 07:14:10;;;;;;;31.57;5.37;;;;;;;;;;4990295;28;20471;-85
2022/01/28 07:16:37;;;;;;;28.60;4.87;;;;;;;;;;4992041;28;20455;-84
2022/01/28 07:19:05;;;;;;;22.17;7.83;;;;;;;;;;4993188;28;21031;-85
2022/01/28 07:21:31;;;;;;;29.50;6.23;;;;;;;;;;4989551;28;20528;-85
2022/01/28 07:23:57;;;;;;;16.77;4.73;;;;;;;;;;4991823;28;20474;-85
2022/01/28 07:26:23;;;;;;;15.03;3.93;;;;;;;;;;4992730;28;20533;-85
2022/01/28 07:28:50;;;;;;;20.13;4.03;;;;;;;;;;4988351;28;20540;-85
2022/01/28 07:31:18;;;;;;;19.67;5.13;;;;;;;;;;4990637;28;20521;-85
2022/01/28 07:33:44;;;;;;;18.40;4.13;;;;;;;;;;4994231;28;20529;-84
2022/01/28 07:36:12;;;;;;;25.30;5.60;;;;;;;;;;4994690;28;20486;-85
2022/01/28 07:38:38;;;;;;;23.30;6.00;;;;;;;;;;4997277;28;20451;-85
2022/01/28 07:41:05;;;;;;;21.40;5.13;;;;;;;;;;4994252;28;20529;-85
2022/01/28 07:43:31;;;;;;;25.83;5.23;;;;;;;;;;4992441;28;20521;-85
2022/01/28 07:45:57;;;;;;;20.93;4.80;;;;;;;;;;4992744;28;20890;-85
2022/01/28 07:48:24;;;;;;;15.23;5.07;;;;;;;;;;4990204;28;20466;-87
2022/01/28 07:50:50;;;;;;;21.90;5.00;;;;;;;;;;4992123;28;20479;-84
2022/01/28 07:53:18;;;;;;;25.47;4.50;;;;;;;;;;4997230;28;20455;-84
2022/01/28 07:55:44;;;;;;;14.57;5.30;;;;;;;;;;5000196;28;20477;-83
2022/01/28 07:58:10;;;;;;;27.17;5.33;;;;;;;;;;4992873;28;20458;-84
2022/01/28 08:00:37;;;;;;;18.57;4.00;;;;;;;;;;4986261;28;20475;-85
2022/01/28 08:03:03;;;;;;;15.40;4.57;;;;;;;;;;4995679;28;20455;-84
2022/01/28 08:05:29;;;;;;;24.63;6.33;;;;;;;;;;5026263;23;20557;-83
2022/01/28 08:07:55;;;;;;;23.87;5.60;;;;;;;;;;4993394;28;20502;-83
2022/01/28 08:10:23;;;;;;;22.00;5.40;;;;;;;;;;4990357;28;20474;-84
2022/01/28 08:12:51;;;;;;;18.20;5.37;;;;;;;;;;4994683;28;20450;-84
2022/01/28 08:15:17;;;;;;;21.17;5.53;;;;;;;;;;5000826;28;20451;-83
2022/01/28 08:17:44;;;;;;;24.10;4.47;;;;;;;;;;5001246;28;20517;-83
2022/01/28 08:20:11;;;;;;;22.93;5.43;;;;;;;;;;4996294;28;20478;-83
2022/01/28 08:22:44;;;;;;;17.13;5.23;;;;;;;;;;4996910;28;20511;-84
2022/01/28 08:25:10;;;;;;;28.93;6.30;;;;;;;;;;4991759;28;20912;-85
2022/01/28 08:27:37;;;;;;;20.43;5.13;;;;;;;;;;4987364;28;20472;-84
2022/01/28 08:30:04;;;;;;;21.13;6.47;;;;;;;;;;4993866;28;20475;-84
2022/01/28 08:32:30;;;;;;;21.20;5.50;;;;;;;;;;4991509;28;20490;-84
2022/01/28 08:34:57;;;;;;;23.00;5.43;;;;;;;;;;4990888;28;20501;-84
2022/01/28 08:37:23;;;;;;;29.17;5.10;;;;;;;;;;4990560;28;20474;-84
2022/01/28 08:39:49;;;;;;;22.37;5.60;;;;;;;;;;4987296;28;20502;-84
2022/01/28 08:42:16;;;;;;;17.57;5.30;;;;;;;;;;4986816;28;20458;-84
2022/01/28 08:44:44;;;;;;;21.83;5.43;;;;;;;;;;4989966;28;20467;-84
2022/01/28 08:47:10;;;;;;;26.30;5.20;;;;;;;;;;4996087;28;20472;-83
2022/01/28 08:49:36;;;;;;;22.70;5.33;;;;;;;;;;4994816;28;20474;-84
2022/01/28 08:52:03;;;;;;;22.60;4.40;;;;;;;;;;4998952;28;20481;-84
2022/01/28 08:54:29;;;;;;;22.43;5.13;;;;;;;;;;4992762;28;20455;-84
2022/01/28 08:56:55;;;;;;;21.00;6.07;;;;;;;;;;4993750;28;20541;-84
2022/01/28 08:59:22;;;;;;;26.47;5.77;;;;;;;;;;4986331;28;20506;-84
2022/01/28 09:01:49;;;;;;;23.67;5.83;;;;;;;;;;4994839;28;20454;-84
2022/01/28 09:04:15;;;;;;;28.03;5.17;;;;;;;;;;4992390;28;20454;-84
2022/01/28 09:06:42;;;;;;;28.93;6.30;;;;;;;;;;4990441;28;20487;-84
2022/01/28 09:09:08;;;;;;;15.70;5.73;;;;;;;;;;4996882;28;20459;-85
2022/01/28 09:11:46;;;;;;;25.23;5.20;;;;;;;;;;4994388;28;20498;-84
2022/01/28 09:14:13;;;;;;;24.40;8.07;;;;;;;;;;4989896;28;21138;-85
2022/01/28 09:16:40;;;;;;;25.10;4.87;;;;;;;;;;4993719;28;20466;-84
2022/01/28 09:19:08;;;;;;;29.03;5.07;;;;;;;;;;4991871;28;20807;-84
2022/01/28 09:21:34;;;;;;;20.00;5.50;;;;;;;;;;4988223;28;20506;-83
2022/01/28 09:24:01;;;;;;;37.07;6.70;;;;;;;;;;4991430;28;20521;-83
2022/01/28 09:26:27;;;;;;;22.80;6.63;;;;;;;;;;4994982;28;20482;-84
2022/01/28 09:28:53;;;;;;;24.17;5.47;;;;;;;;;;4990110;28;20471;-84
2022/01/28 09:31:19;;;;;;;27.00;4.77;;;;;;;;;;4993776;28;20537;-84
2022/01/28 09:33:46;;;;;;;20.33;4.90;;;;;;;;;;4986546;28;20478;-84
2022/01/28 09:36:13;;;;;;;19.03;5.17;;;;;;;;;;4994886;28;20478;-84
2022/01/28 09:38:40;;;;;;;19.97;5.30;;;;;;;;;;4990037;28;20933;-84
2022/01/28 09:41:06;;;;;;;13.20;3.57;;;;;;;;;;4993224;28;20498;-85
2022/01/28 09:43:33;;;;;;;14.37;3.70;;;;;;;;;;4988241;28;20450;-85
2022/01/28 09:45:59;;;;;;;21.97;4.83;;;;;;;;;;4982003;28;20506;-85
2022/01/28 09:48:26;;;;;;;25.50;3.80;;;;;;;;;;4987026;28;20459;-83
2022/01/28 09:50:53;;;;;;;16.70;4.77;;;;;;;;;;4989862;28;21072;-84
2022/01/28 09:53:20;;;;;;;19.40;5.07;;;;;;;;;;4994856;28;20462;-84
2022/01/28 09:55:47;;;;;;;9.73;4.10;;;;;;;;;;4995284;28;20491;-85
2022/01/28 09:58:14;;;;;;;22.77;4.53;;;;;;;;;;4987919;28;20542;-83
2022/01/28 10:00:40;;;;;;;10.20;4.27;;;;;;;;;;4993090;28;20481;-84
2022/01/28 10:03:08;;;;;;;28.23;5.47;;;;;;;;;;4987113;28;20458;-84
2022/01/28 10:05:35;;;;;;;14.70;4.20;;;;;;;;;;4989170;28;20475;-84
2022/01/28 10:08:03;;;;;;;18.80;4.60;;;;;;;;;;4997445;28;20459;-83
2022/01/28 10:10:40;;;;;;;17.87;4.57;;;;;;;;;;4990646;28;20479;-84
2022/01/28 10:13:11;;;;;;;15.37;3.87;;;;;;;;;;4990478;28;20512;-84
2022/01/28 10:15:51;;;;;;;20.33;5.20;;;;;;;;;;4986956;28;20475;-85
2022/01/28 10:18:17;;;;;;;16.70;4.20;;;;;;;;;;4992053;28;20454;-82
2022/01/28 10:20:44;;;;;;;25.67;4.27;;;;;;;;;;4997642;28;20483;-81
2022/01/28 10:23:12;;;;;;;20.20;4.67;;;;;;;;;;4999223;28;20505;-82
2022/01/28 10:25:42;;;;;;;11.70;4.37;;;;;;;;;;5000085;28;21047;-81
2022/01/28 10:28:09;;;;;;;24.10;5.10;;;;;;;;;;4998906;28;20455;-85
2022/01/28 10:30:37;;;;;;;21.87;4.07;;;;;;;;;;4997846;28;20462;-83
2022/01/28 10:33:10;;;;;;;31.33;5.63;;;;;;;;;;4996081;28;20841;-84
2022/01/28 10:35:36;;;;;;;18.17;5.10;;;;;;;;;;4989314;28;20546;-84
2022/01/28 10:38:04;;;;;;;26.23;7.33;;;;;;;;;;4990085;28;20494;-83
2022/01/28 10:40:30;;;;;;;10.80;4.70;;;;;;;;;;4988736;28;20533;-83
2022/01/28 10:42:57;;;;;;;17.90;4.77;;;;;;;;;;5004541;28;20457;-83
2022/01/28 10:45:30;;;;;;;21.57;3.80;;;;;;;;;;4997527;28;20489;-83
2022/01/28 10:47:58;;;;;;;21.00;5.70;;;;;;;;;;4996511;28;20532;-83
2022/01/28 10:50:25;;;;;;;37.17;6.43;;;;;;;;;;4996599;28;20462;-83
2022/01/28 10:52:59;;;;;;;22.27;5.03;;;;;;;;;;4988880;28;20487;-83
2022/01/28 10:55:26;;;;;;;29.30;4.43;;;;;;;;;;4996531;28;20849;-82
2022/01/28 10:57:55;;;;;;;15.53;4.50;;;;;;;;;;4994541;28;20949;-84
2022/01/28 11:00:24;;;;;;;20.73;5.43;;;;;;;;;;5002197;28;20497;-83
2022/01/28 11:02:50;;;;;;;21.00;5.10;;;;;;;;;;4998953;28;20524;-83
2022/01/28 11:05:16;;;;;;;22.67;5.00;;;;;;;;;;4993928;28;20509;-84
2022/01/28 11:07:42;;;;;;;18.63;4.93;;;;;;;;;;4993580;28;20995;-83
2022/01/28 11:10:09;;;;;;;15.77;3.97;;;;;;;;;;4994208;28;20534;-84
2022/01/28 11:12:35;;;;;;;21.23;4.87;;;;;;;;;;4995840;28;20486;-84
2022/01/28 11:15:02;;;;;;;22.83;5.73;;;;;;;;;;4996284;28;21066;-82
2022/01/28 11:17:29;;;;;;;23.23;5.07;;;;;;;;;;4996000;28;21029;-84
2022/01/28 11:19:56;;;;;;;23.27;4.90;;;;;;;;;;4990766;28;20475;-83
2022/01/28 11:22:36;;;;;;;19.37;5.50;;;;;;;;;;4997912;28;20454;-83
2022/01/28 11:25:14;;;;;;;23.43;4.60;;;;;;;;;;5000537;28;20549;-81
2022/01/28 11:27:41;;;;;;;24.20;5.77;;;;;;;;;;4997287;28;20495;-80
2022/01/28 11:30:14;;;;;;;18.83;4.53;;;;;;;;;;4998705;28;20470;-81
2022/01/28 11:32:53;;;;;;;18.83;5.23;;;;;;;;;;4996559;28;20611;-81
2022/01/28 11:35:20;;;;;;;15.87;4.77;;;;;;;;;;4999049;28;20505;-82
2022/01/28 11:37:46;;;;;;;28.70;7.00;;;;;;;;;;4997443;28;20529;-81
2022/01/28 11:40:13;;;;;;;16.77;5.33;;;;;;;;;;4990829;28;20990;-82
2022/01/28 11:42:40;;;;;;;15.13;4.20;;;;;;;;;;4993321;28;20451;-81
2022/01/28 11:45:08;;;;;;;18.47;3.93;;;;;;;;;;4996464;28;20529;-82
2022/01/28 11:47:35;;;;;;;18.30;3.47;;;;;;;;;;4990830;28;20470;-81
2022/01/28 11:50:07;;;;;;;23.47;4.97;;;;;;;;;;4993361;28;20473;-81
2022/01/28 11:52:34;;;;;;;13.83;4.20;;;;;;;;;;4995742;28;20578;-82
2022/01/28 11:55:20;;;;;;;17.07;4.10;;;;;;;;;;4988874;28;20481;-83
2022/01/28 11:57:50;;;;;;;17.30;4.77;;;;;;;;;;4992146;28;20475;-81
2022/01/28 12:00:21;;;;;;;17.73;4.90;;;;;;;;;;4988827;28;20864;-81
2022/01/28 12:02:48;;;;;;;25.07;5.93;;;;;;;;;;4996358;28;21056;-82
2022/01/28 12:05:26;;;;;;;19.30;5.13;;;;;;;;;;4993234;28;20849;-82
2022/01/28 12:07:53;;;;;;;16.40;4.20;;;;;;;;;;4988564;28;20444;-82
2022/01/28 12:10:20;;;;;;;21.53;4.47;;;;;;;;;;4991411;28;20486;-82
2022/01/28 12:12:55;;;;;;;31.60;6.23;;;;;;;;;;4998131;28;20487;-81
2022/01/28 12:15:23;;;;;;;22.13;5.40;;;;;;;;;;4997971;28;20510;-82
2022/01/28 12:17:50;;;;;;;19.60;4.77;;;;;;;;;;4987940;28;20495;-84
2022/01/28 12:20:35;;;;;;;17.97;4.33;;;;;;;;;;4993982;28;20470;-83
2022/01/28 12:23:04;;;;;;;16.70;3.73;;;;;;;;;;4996272;28;20454;-82
2022/01/28 12:25:49;;;;;;;19.60;4.03;;;;;;;;;;4999469;28;20478;-82
2022/01/28 12:28:16;;;;;;;20.93;4.70;;;;;;;;;;4990614;28;20451;-81
2022/01/28 12:30:43;;;;;;;23.80;5.27;;;;;;;;;;4994077;28;20500;-83
2022/01/28 12:33:10;;;;;;;22.57;4.40;;;;;;;;;;4994523;28;20873;-82
2022/01/28 12:35:36;;;;;;;24.07;3.43;;;;;;;;;;4994682;28;20481;-82
2022/01/28 12:38:05;;;;;;;15.70;4.00;;;;;;;;;;4991459;28;20471;-83
2022/01/28 12:40:36;;;;;;;17.40;3.97;;;;;;;;;;4995389;28;20471;-84
2022/01/28 12:43:02;;;;;;;15.13;3.93;;;;;;;;;;4999368;28;20459;-82
2022/01/28 12:45:29;;;;;;;13.77;3.73;;;;;;;;;;4997232;28;20475;-82
2022/01/28 12:47:55;;;;;;;17.27;4.70;;;;;;;;;;4995644;28;20505;-82
2022/01/28 12:50:22;;;;;;;25.70;4.60;;;;;;;;;;4994864;28;20475;-82
2022/01/28 12:52:48;;;;;;;22.53;4.53;;;;;;;;;;4995158;28;20514;-81
2022/01/28 12:55:16;;;;;;;12.00;3.60;;;;;;;;;;5004407;28;20474;-82
2022/01/28 12:57:43;;;;;;;19.37;4.47;;;;;;;;;;4994943;28;20474;-81
2022/01/28 13:00:09;;;;;;;21.70;4.03;;;;;;;;;;4995516;28;20480;-83
2022/01/28 13:02:36;;;;;;;22.10;4.70;;;;;;;;;;4986039;28;20466;-83
2022/01/28 13:05:13;;;;;;;15.80;4.13;;;;;;;;;;4995881;28;20489;-82
2022/01/28 13:10:26;;;;;;;27.20;4.57;;;;;;;;;;4991259;28;20521;-82
2022/01/28 13:12:53;;;;;;;20.03;4.60;;;;;;;;;;4997051;28;20487;-81
2022/01/28 13:15:21;;;;;;;13.10;4.07;;;;;;;;;;4997366;28;20648;-81
2022/01/28 13:17:57;;;;;;;23.90;4.67;;;;;;;;;;4996711;28;20479;-82
2022/01/28 13:20:23;;;;;;;25.83;5.87;;;;;;;;;;4989871;28;20474;-82
2022/01/28 13:22:50;;;;;;;19.57;4.70;;;;;;;;;;4994804;28;20451;-83
2022/01/28 13:25:18;;;;;;;25.27;4.17;;;;;;;;;;4995173;28;21026;-82
2022/01/28 13:27:47;;;;;;;18.77;4.47;;;;;;;;;;4992701;28;20482;-82
2022/01/28 13:30:14;;;;;;;17.30;4.27;;;;;;;;;;4995878;28;20858;-81
2022/01/28 13:32:43;;;;;;;19.03;5.10;;;;;;;;;;5000455;28;20560;-82
2022/01/28 13:35:12;;;;;;;20.47;4.97;;;;;;;;;;4998999;28;20549;-82
2022/01/28 13:37:40;;;;;;;23.63;4.73;;;;;;;;;;4996107;28;20917;-82
2022/01/28 13:40:08;;;;;;;18.23;5.13;;;;;;;;;;4990411;28;20813;-82
2022/01/28 13:42:34;;;;;;;25.07;4.80;;;;;;;;;;4998106;28;20451;-82
2022/01/28 13:45:04;;;;;;;18.00;4.70;;;;;;;;;;4996222;28;20932;-82
2022/01/28 13:47:50;;;;;;;24.60;4.93;;;;;;;;;;4997368;28;20552;-82
2022/01/28 13:50:23;;;;;;;23.40;4.00;;;;;;;;;;4992617;28;20473;-81
2022/01/28 13:52:53;;;;;;;17.97;4.07;;;;;;;;;;4994756;28;20482;-82
2022/01/28 13:55:32;;;;;;;17.53;3.93;;;;;;;;;;4996873;28;20474;-83
2022/01/28 13:58:01;;;;;;;19.97;4.60;;;;;;;;;;4981448;28;20530;-81
2022/01/28 14:00:36;;;;;;;20.27;4.40;;;;;;;;;;4993446;28;20486;-82
2022/01/28 14:03:02;;;;;;;14.13;4.33;;;;;;;;;;5000291;28;20472;-82
2022/01/28 14:05:43;;;;;;;13.77;4.17;;;;;;;;;;4994425;28;20466;-82
2022/01/28 14:08:10;;;;;;;16.33;5.77;;;;;;;;;;5035803;23;20494;-83
2022/01/28 14:10:38;;;;;;;28.13;5.40;;;;;;;;;;4991561;28;20882;-81
2022/01/28 14:13:18;;;;;;;18.20;5.30;;;;;;;;;;4994425;28;20479;-84
2022/01/28 14:16:00;;;;;;;15.87;4.30;;;;;;;;;;4992275;28;20473;-83
2022/01/28 14:18:27;;;;;;;16.20;4.47;;;;;;;;;;4988480;28;20502;-83
2022/01/28 14:20:53;;;;;;;21.10;5.00;;;;;;;;;;4991032;28;20486;-83
2022/01/28 14:23:19;;;;;;;32.57;5.13;;;;;;;;;;4992242;28;20475;-85
2022/01/28 14:25:45;;;;;;;16.23;4.07;;;;;;;;;;4984335;28;21016;-83
2022/01/28 14:28:24;;;;;;;25.20;5.97;;;;;;;;;;4991460;28;20482;-83
2022/01/28 14:31:06;;;;;;;16.70;4.70;;;;;;;;;;4990597;28;20569;-82
2022/01/28 14:33:32;;;;;;;17.50;4.43;;;;;;;;;;4985992;28;20536;-84
2022/01/28 14:35:58;;;;;;;24.10;5.17;;;;;;;;;;4988682;28;20482;-83
2022/01/28 14:38:24;;;;;;;24.27;5.70;;;;;;;;;;4990152;28;20478;-83
2022/01/28 14:40:51;;;;;;;18.10;4.33;;;;;;;;;;4993226;28;20480;-83
2022/01/28 14:43:17;;;;;;;20.47;4.70;;;;;;;;;;4993694;28;20454;-82
2022/01/28 14:45:43;;;;;;;18.93;4.53;;;;;;;;;;4993593;28;20482;-84
2022/01/28 14:48:11;;;;;;;24.90;4.93;;;;;;;;;;4985842;28;20467;-82
2022/01/28 14:50:37;;;;;;;20.10;5.67;;;;;;;;;;4994048;28;20850;-83
2022/01/28 14:53:03;;;;;;;21.20;4.50;;;;;;;;;;4993978;28;20501;-83
2022/01/28 14:55:30;;;;;;;15.00;4.70;;;;;;;;;;4992682;28;20485;-84
2022/01/28 14:57:56;;;;;;;22.63;4.30;;;;;;;;;;4993424;28;20899;-82
2022/01/28 15:00:22;;;;;;;16.23;4.53;;;;;;;;;;4991623;28;22364;-82
2022/01/28 15:02:49;;;;;;;21.27;5.70;;;;;;;;;;4986110;28;20469;-82
2022/01/28 15:05:16;;;;;;;13.30;4.20;;;;;;;;;;4994284;28;20469;-83
2022/01/28 15:07:42;;;;;;;21.63;5.10;;;;;;;;;;4990851;28;20485;-83
2022/01/28 15:10:10;;;;;;;18.67;6.07;;;;;;;;;;4993420;28;20482;-83
2022/01/28 15:12:37;;;;;;;14.03;4.33;;;;;;;;;;4993164;28;20461;-83
2022/01/28 15:15:03;;;;;;;18.93;4.93;;;;;;;;;;4991284;28;20485;-83
2022/01/28 15:17:31;;;;;;;19.40;4.63;;;;;;;;;;4993110;28;20905;-83
2022/01/28 15:19:58;;;;;;;18.60;4.37;;;;;;;;;;4995192;28;20486;-84
2022/01/28 15:22:25;;;;;;;18.60;5.00;;;;;;;;;;4989627;28;20462;-83
2022/01/28 15:24:52;;;;;;;17.03;3.80;;;;;;;;;;4993193;28;21012;-82
2022/01/28 15:27:19;;;;;;;13.03;4.03;;;;;;;;;;4993651;28;20992;-83
2022/01/28 15:30:01;;;;;;;25.70;6.27;;;;;;;;;;4990587;28;20482;-83